• Join FlightAware (Why Join?)
  • Login
  • US Flag 
11:27AM EDT


 

Airport Tracker/Info


-or-


 

Live Flight TrackerFlight Track Log ✈ GJS6221 ✈ 01-Oct-2013 ✈ KLGA - KSAV

Flight Track Log - Related Links

Times and Time Zones

All times are in EDT time to prevent confusion due to time zone crossing. See the GJS6221 flight status page for this flight to view local times or setup timezone preferences in your user account.

Time Position Orientation Groundspeed Altitude Reporting Facility
EDT Latitude Longitude Course Direction KTS MPH feet Rate Location/Type
03:58PM 40.8167 -73.9167 225° Southwest 183 211 2,000  Level New York TRACON
03:59PM 40.8333 -73.9667 294° West 249 287 4,200 2,400 Climbing New York TRACON
04:00PM 40.7833 -74.0333 225° Southwest 270 311 6,800 1,800 Climbing New York TRACON
04:01PM 40.7333 -74.1000 225° Southwest 272 313 7,900 1,800 Climbing New York TRACON
04:02PM 40.6500 -74.1333 197° South 301 346 10,500 2,520 Climbing New York TRACON
04:03PM 40.5667 -74.1500 189° South 312 359 13,000 1,920 Climbing New York TRACON
04:04PM 40.2114 -74.4202 225° Southwest  Level Estimated
04:04PM 40.4667 -74.1667 187° South 358 412 14,400  Level New York TRACON
04:06PM 40.2806 -74.2017 188° South 378 435 17,000 1,440 Climbing New York Center
04:08PM 40.1203 -74.2269 187° South 406 467 19,400 1,680 Climbing Washington Center
04:09PM 40.0081 -74.2533 190° South 412 474 21,400 1,620 Climbing Washington Center
04:10PM 39.9172 -74.3364 215° Southwest 395 455 22,700 1,500 Climbing Washington Center
04:11PM 39.8181 -74.4003 206° Southwest 400 460 24,400 1,560 Climbing Washington Center
04:12PM 39.7167 -74.4694 208° Southwest 406 467 25,900 1,200 Climbing Washington Center
04:13PM 39.6069 -74.5519 210° Southwest 417 480 26,900 960 Climbing Washington Center
04:14PM 39.5014 -74.6342 211° Southwest 430 495 27,900 960 Climbing Washington Center
04:15PM 39.3936 -74.7161 210° Southwest 440 506 28,900 960 Climbing Washington Center
04:16PM 39.2836 -74.8033 212° Southwest 452 520 29,900 900 Climbing Washington Center
04:17PM 39.1758 -74.8875 211° Southwest 462 532 30,800 840 Climbing Washington Center
04:18PM 39.0617 -74.9714 210° Southwest 468 539 31,600 900 Climbing Washington Center
04:19PM 38.9456 -75.0606 211° Southwest 474 545 32,600 960 Climbing Washington Center
04:20PM 38.8292 -75.1467 210° Southwest 479 551 33,600 900 Climbing Washington Center
04:21PM 38.7147 -75.2350 211° Southwest 484 557 34,500 900 Climbing Washington Center
04:22PM 38.6003 -75.3208 210° Southwest 484 557 35,500 840 Climbing Washington Center
04:23PM 38.4858 -75.4114 212° Southwest 484 557 36,300 660 Climbing Washington Center
04:24PM 38.3711 -75.4911 209° Southwest 484 557 36,900 600 Climbing Washington Center
04:25PM 38.2628 -75.5892 215° Southwest 484 557 37,500 480 Climbing Washington Center
04:26PM 38.1689 -75.6842 219° Southwest 489 563 37,900 240 Climbing Washington Center
04:27PM 38.0644 -75.7894 218° Southwest 489 563 38,000  Climbing Washington Center
04:28PM 37.9600 -75.8972 219° Southwest 489 563 38,000  Level Washington Center
04:29PM 37.8533 -76.0019 218° Southwest 489 563 38,000  Level Washington Center
04:30PM 37.7425 -76.1222 221° Southwest 489 563 38,000  Level Washington Center
04:31PM 37.6461 -76.2081 215° Southwest 489 563 38,000  Level Washington Center
04:32PM 37.5392 -76.3119 218° Southwest 489 563 38,000  Level Washington Center
04:33PM 37.4342 -76.4183 219° Southwest 489 563 38,000  Level Washington Center
04:34PM 37.3228 -76.5242 217° Southwest 494 568 38,000  Level Washington Center
04:35PM 37.2133 -76.6325 218° Southwest 494 568 38,000  Level Washington Center
04:36PM 37.1061 -76.7378 218° Southwest 494 568 38,000  Level Washington Center
04:37PM 36.9986 -76.8428 218° Southwest 494 568 38,000  Level Washington Center
04:38PM 36.8911 -76.9475 218° Southwest 494 568 38,000  Level Washington Center
04:39PM 36.7814 -77.0519 217° Southwest 494 568 38,000  Level Washington Center
04:40PM 36.6736 -77.1561 218° Southwest 494 568 38,000  Level Washington Center
04:41PM 36.5658 -77.2600 218° Southwest 494 568 38,000  Level Washington Center
04:42PM 36.4558 -77.3661 218° Southwest 494 568 38,000  Level Washington Center
04:43PM 36.3394 -77.4769 218° Southwest 494 568 38,000  Level Washington Center
04:44PM 36.2292 -77.5825 218° Southwest 494 568 38,000  Level Washington Center
04:45PM 36.1189 -77.6850 217° Southwest 494 568 38,000  Level Washington Center
04:46PM 36.0108 -77.7900 218° Southwest 494 568 38,000  Level Washington Center
04:47PM 35.9025 -77.8894 217° Southwest 494 568 38,000  Level Washington Center
04:48PM 35.7961 -77.9889 217° Southwest 494 568 38,000  Level Washington Center
04:49PM 35.6856 -78.0878 216° Southwest 494 568 38,000  Level Washington Center
04:50PM 35.5792 -78.1842 216° Southwest 494 568 38,000  Level Washington Center
04:51PM 35.4706 -78.2828 216° Southwest 494 568 38,000  Level Washington Center
04:52PM 35.3578 -78.3833 216° Southwest 494 568 38,000  Level Washington Center
04:53PM 35.2489 -78.4864 218° Southwest 499 574 38,000  Level Washington Center
04:54PM 35.1400 -78.5892 218° Southwest 494 568 38,000  Level Washington Center
04:55PM 35.0289 -78.6917 217° Southwest 494 568 38,000  Level Washington Center
04:57PM 34.8442 -78.8556 216° Southwest 484 557 38,000  Level Jacksonville Center
04:58PM 34.7325 -78.9569 217° Southwest 495 570 38,000  Level Jacksonville Center
04:59PM 34.6208 -79.0553 216° Southwest 500 575 38,000  Level Jacksonville Center
05:00PM 34.5014 -79.1714 219° Southwest 500 575 38,000  Level Jacksonville Center
05:01PM 34.3894 -79.2694 216° Southwest 500 575 38,000  Level Jacksonville Center
05:02PM 34.2817 -79.3642 216° Southwest 494 568 38,000  Level Jacksonville Center
05:03PM 34.1756 -79.4539 215° Southwest 486 559 38,000  Level Jacksonville Center
05:04PM 34.0678 -79.5558 218° Southwest 486 559 38,000 -660 Level Jacksonville Center
05:05PM 33.9553 -79.6503 215° Southwest 491 565 36,700 -1,440 Descending Jacksonville Center
05:06PM 33.8453 -79.7469 216° Southwest 491 565 35,200 -1,500 Descending Jacksonville Center
05:07PM 33.7369 -79.8408 216° Southwest 491 565 33,700 -1,500 Descending Jacksonville Center
05:08PM 33.6267 -79.9392 217° Southwest 491 565 32,200 -1,680 Descending Jacksonville Center
05:09PM 33.5161 -80.0353 216° Southwest 491 565 30,400 -1,920 Descending Jacksonville Center
05:10PM 33.4036 -80.1358 217° Southwest 491 565 28,400 -1,980 Descending Jacksonville Center
05:11PM 33.2928 -80.2286 215° Southwest 491 565 26,500 -1,800 Descending Jacksonville Center
05:12PM 33.1842 -80.3189 215° Southwest 491 565 24,800 -1,800 Descending Jacksonville Center
05:13PM 33.0836 -80.4083 217° Southwest 485 558 23,000 -1,680 Descending Jacksonville Center
05:14PM 32.9747 -80.5031 216° Southwest 479 551 21,500 -1,860 Descending Jacksonville Center
05:15PM 32.8761 -80.5850 215° Southwest 465 535 19,300 -2,340 Descending Jacksonville Center
05:16PM 32.7944 -80.6833 225° Southwest 445 512 16,900 -2,460 Descending Jacksonville Center
05:17PM 32.7231 -80.7886 231° Southwest 418 481 14,400 -2,520 Descending Jacksonville Center
05:18PM 32.6558 -80.8867 231° Southwest 404 465 11,900 -1,800 Descending Jacksonville Center
05:19PM 32.5925 -80.9817 232° Southwest 378 435 10,900 -540 Descending Jacksonville Center
05:20PM 32.5014 -81.0278 203° Southwest 352 405 10,900 -120 Level Jacksonville Center
05:21PM 32.4314 -81.0836 214° Southwest 343 395 10,700 -840 Descending Jacksonville Center
05:22PM 32.3739 -81.1608 229° Southwest 299 344 9,300 -1,620 Descending Jacksonville Center
05:23PM 32.3308 -81.2256 232° Southwest 281 323 7,500 -1,800 Descending Jacksonville Center
05:24PM 32.2733 -81.2856 221° Southwest 275 316 5,700 -1,620 Descending Jacksonville Center
05:25PM 32.2047 -81.3164 201° Southwest 258 297 4,300 -1,560 Descending Jacksonville Center
05:26PM 32.1550 -81.3344 197° South 218 251 2,600 -1,740 Descending Jacksonville Center
05:28PM 32.1276 -81.2021 104° East  Level Estimated
05:35PM 32.1276 -81.2021 16° North  Level Estimated
05:36PM 32.1276 -81.2021 16° North  Level Estimated
05:37PM 32.1276 -81.2021 16° North  Level Estimated